Etusivu
METAR-TAF:

METAR-TAF

Lentoasemat :

Västeråsin lentoasema

Västerås, Ruotsi

Leveyspiiri: 59-35N, Pituuspiiri: 016-38E, korkeus merenpinnasta: 6 m

Tämänhetkinen sää

Tämä raportti tehtiin 23 minuuttia sitten, kello 12.20 UTC
Tuuli 13 kn lännestä/lounaasta, vaihdellen lounaan ja lännen/luoteen välillä
Lämpötila 12°C
Kosteus 38%
Ilmanpaine 1025 hPa
Näkyvyys 10 km tai enemmän
ei pilviä alle 1500 m:ssä eikä cumulonimbus-pilviä

METAR: ESOW 251220Z 25013KT 220V290 CAVOK 12/M02 Q1025

Aika: 14:43 (12:43 UTC)

Sääennuste

Tämä raportti tehtiin 1 tunti ja 13 minuuttia sitten, kello 11.30 UTC
Ennuste voimassa 25. päivästä klo 12 UTC - 25. päivään klo 14 UTC
Tuuli 12 kn lännestä/lounaasta puuskistuen 22 kn:hen
Näkyvyys 10 km tai enemmän
ei pilviä alle 1500 m:ssä eikä cumulonimbus-pilviä

TAF: ESOW 251130Z 2512/2514 24012G22KT CAVOK

Säähavainnot ja -ennusteet yli 4000 lentoasemalta (METAR- ja TAF-raportit).

Käytössä olevat sääasemat on merkitty karttaan keltaisilla ja punaisilla pisteillä.

Aseta hiiri pisteen päälle nähdäksesi sääaseman nimen.

Klikkaa sitten nähdäksesi säähavainnot ja -ennusteet.

Kartan vaihtaminen: klikkaa mustalla rastilla varustettuja vihreitä pisteitä, niin voit zoomata sisään; viivalla varustettua vihreää pistettä, niin voit zoomata ulos tai vihreitä nuolia, niin pääset viereisille kartoille.


METAR-TAF: